createdAt,value
2019-02-14T00:00:48.711Z,-0.42
2019-02-14T00:01:48.685Z,-0.39
2019-02-14T00:02:48.770Z,-0.40
2019-02-14T00:03:48.767Z,-0.40
2019-02-14T00:04:48.669Z,-0.40
2019-02-14T00:05:48.631Z,-0.50
2019-02-14T00:06:48.654Z,-0.39
2019-02-14T00:07:48.604Z,-0.31
2019-02-14T00:08:48.666Z,-0.31
2019-02-14T00:09:48.612Z,-0.32
2019-02-14T00:10:48.597Z,-0.29
2019-02-14T00:11:48.697Z,-0.31
2019-02-14T00:12:48.626Z,-0.38
2019-02-14T00:13:48.629Z,-0.17
2019-02-14T00:14:49.623Z,-0.16
2019-02-14T00:15:48.536Z,-0.14
2019-02-14T00:16:48.533Z,-0.17
2019-02-14T00:17:48.527Z,-0.24
2019-02-14T00:18:48.515Z,-0.20
2019-02-14T00:19:48.516Z,-0.14
2019-02-14T00:20:48.512Z,-0.10
2019-02-14T00:21:48.493Z,-0.11
2019-02-14T00:22:48.460Z,-0.14
2019-02-14T00:23:48.448Z,-0.07
2019-02-14T00:24:48.446Z,-0.07
2019-02-14T00:25:48.416Z,-0.07
2019-02-14T00:26:48.464Z,-0.09
2019-02-14T00:27:48.406Z,-0.13
2019-02-14T00:28:48.396Z,-0.11
2019-02-14T00:29:48.379Z,-0.09
2019-02-14T00:30:48.384Z,-0.13
2019-02-14T00:31:48.351Z,-0.11
2019-02-14T00:32:48.441Z,-0.06
2019-02-14T00:33:48.340Z,-0.14
2019-02-14T00:34:48.348Z,-0.13
2019-02-14T00:35:48.343Z,-0.10
2019-02-14T00:36:48.399Z,-0.10
2019-02-14T00:37:48.371Z,-0.11
2019-02-14T00:38:48.355Z,-0.04
2019-02-14T00:39:48.287Z,-0.06
2019-02-14T00:40:48.279Z,0.05
2019-02-14T00:41:48.254Z,0.00
2019-02-14T00:42:48.248Z,0.00
2019-02-14T00:43:48.322Z,0.07
2019-02-14T00:44:48.310Z,0.04
2019-02-14T00:45:48.217Z,-0.03
2019-02-14T00:46:48.201Z,-0.04
2019-02-14T00:47:48.195Z,-0.01
2019-02-14T00:48:48.212Z,0.09
2019-02-14T00:49:48.194Z,0.05
2019-02-14T00:50:48.248Z,0.11
2019-02-14T00:51:48.150Z,0.22
2019-02-14T00:52:48.148Z,0.12
2019-02-14T00:53:48.139Z,0.14
2019-02-14T00:54:48.143Z,0.08
2019-02-14T00:55:48.118Z,0.09
2019-02-14T00:56:48.242Z,0.14
2019-02-14T00:57:48.138Z,0.09
2019-02-14T00:58:48.114Z,0.11
2019-02-14T00:59:48.116Z,0.00
2019-02-14T01:00:48.069Z,0.07
2019-02-14T01:01:48.039Z,0.12
2019-02-14T01:02:48.078Z,0.09
2019-02-14T01:03:48.020Z,0.07
2019-02-14T01:04:48.005Z,0.14
2019-02-14T01:05:48.058Z,0.09
2019-02-14T01:06:47.995Z,0.07
2019-02-14T01:07:47.973Z,0.11
2019-02-14T01:08:48.002Z,0.07
2019-02-14T01:09:48.019Z,0.12
2019-02-14T01:10:47.931Z,0.05
2019-02-14T01:11:47.918Z,0.02
2019-02-14T01:12:47.924Z,-0.06
2019-02-14T01:13:47.912Z,0.00
2019-02-14T01:14:47.996Z,-0.04
2019-02-14T01:15:47.880Z,-0.10
2019-02-14T01:16:47.867Z,-0.03
2019-02-14T01:17:47.880Z,-0.14
2019-02-14T01:18:47.841Z,-0.07
2019-02-14T01:19:47.873Z,-0.11
2019-02-14T01:20:48.010Z,-0.10
2019-02-14T01:21:47.819Z,-0.09
2019-02-14T01:22:47.837Z,-0.07
2019-02-14T01:23:47.821Z,-0.09
2019-02-14T01:24:47.871Z,-0.14
2019-02-14T01:25:47.777Z,-0.11
2019-02-14T01:26:47.855Z,-0.22
2019-02-14T01:27:47.759Z,-0.16
2019-02-14T01:28:47.786Z,-0.11
2019-02-14T01:29:47.733Z,-0.20
2019-02-14T01:30:47.736Z,-0.17
2019-02-14T01:31:47.710Z,-0.20
2019-02-14T01:32:48.759Z,-0.17
2019-02-14T01:33:47.692Z,-0.31
2019-02-14T01:34:47.709Z,-0.27
2019-02-14T01:35:47.661Z,-0.27
2019-02-14T01:36:47.672Z,-0.27
2019-02-14T01:37:48.290Z,-0.42
2019-02-14T01:38:48.243Z,-0.31
2019-02-14T01:39:47.632Z,-0.45
2019-02-14T01:40:47.625Z,-0.43
2019-02-14T01:41:47.655Z,-0.39
2019-02-14T01:42:48.088Z,-0.38
2019-02-14T01:43:47.584Z,-0.43
2019-02-14T01:44:47.671Z,-0.43
2019-02-14T01:45:47.568Z,-0.50
2019-02-14T01:46:47.580Z,-0.40
2019-02-14T01:47:47.561Z,-0.46
2019-02-14T01:48:47.548Z,-0.47
2019-02-14T01:49:47.607Z,-0.46
2019-02-14T01:50:47.576Z,-0.49
2019-02-14T01:51:47.534Z,-0.47
2019-02-14T01:52:47.661Z,-0.57
2019-02-14T01:53:47.552Z,-0.42
2019-02-14T01:54:47.611Z,-0.47
2019-02-14T01:55:47.469Z,-0.53
2019-02-14T01:56:47.514Z,-0.49
2019-02-14T01:57:47.450Z,-0.55
2019-02-14T01:58:47.429Z,-0.60
2019-02-14T01:59:47.406Z,-0.47
2019-02-14T02:00:47.408Z,-0.52
2019-02-14T02:01:47.403Z,-0.52
2019-02-14T02:02:47.701Z,-0.58
2019-02-14T02:03:47.397Z,-0.52
2019-02-14T02:04:47.363Z,-0.50
2019-02-14T02:05:50.854Z,-0.52
2019-02-14T02:06:47.335Z,-0.57
2019-02-14T02:07:47.399Z,-0.47
2019-02-14T02:08:47.365Z,-0.55
2019-02-14T02:09:47.317Z,-0.47
2019-02-14T02:10:47.315Z,-0.47
2019-02-14T02:11:47.282Z,-0.47
2019-02-14T02:12:47.287Z,-0.47
2019-02-14T02:13:47.271Z,-0.49
2019-02-14T02:14:47.325Z,-0.50
2019-02-14T02:15:47.234Z,-0.55
2019-02-14T02:16:47.237Z,-0.49
2019-02-14T02:17:47.244Z,-0.55
2019-02-14T02:18:47.763Z,-0.46
2019-02-14T02:19:47.277Z,-0.43
2019-02-14T02:20:47.267Z,-0.55
2019-02-14T02:21:47.224Z,-0.47
2019-02-14T02:22:47.202Z,-0.58
2019-02-14T02:23:47.192Z,-0.49
2019-02-14T02:24:47.281Z,-0.52
2019-02-14T02:25:47.121Z,-0.49
2019-02-14T02:26:47.200Z,-0.47
2019-02-14T02:27:47.116Z,-0.38
2019-02-14T02:28:47.188Z,-0.40
2019-02-14T02:29:47.074Z,-0.43
2019-02-14T02:30:47.095Z,-0.40
2019-02-14T02:31:47.189Z,-0.39
2019-02-14T02:32:47.147Z,-0.35
2019-02-14T02:33:47.073Z,-0.40
2019-02-14T02:34:47.034Z,-0.42
2019-02-14T02:35:47.015Z,-0.39
2019-02-14T02:36:47.069Z,-0.31
2019-02-14T02:37:47.030Z,-0.34
2019-02-14T02:38:47.091Z,-0.32
2019-02-14T02:39:46.987Z,-0.47
2019-02-14T02:40:46.957Z,-0.40
2019-02-14T02:41:46.978Z,-0.39
2019-02-14T02:42:46.949Z,-0.42
2019-02-14T02:43:46.988Z,-0.39
2019-02-14T02:44:46.984Z,-0.39
2019-02-14T02:45:46.907Z,-0.43
2019-02-14T02:46:46.963Z,-0.43
2019-02-14T02:47:46.987Z,-0.39
2019-02-14T02:48:46.896Z,-0.49
2019-02-14T02:49:46.869Z,-0.40
2019-02-14T02:50:46.933Z,-0.43
2019-02-14T02:51:46.853Z,-0.43
2019-02-14T02:52:46.830Z,-0.40
2019-02-14T02:53:46.822Z,-0.50
2019-02-14T02:54:46.817Z,-0.50
2019-02-14T02:55:46.811Z,-0.55
2019-02-14T02:56:46.881Z,-0.60
2019-02-14T02:57:46.817Z,-0.63
2019-02-14T02:58:46.816Z,-0.70
2019-02-14T02:59:47.726Z,-0.73
2019-02-14T03:00:46.757Z,-0.71
2019-02-14T03:01:46.747Z,-0.70
2019-02-14T03:02:46.788Z,-0.67
2019-02-14T03:03:46.733Z,-0.68
2019-02-14T03:04:46.717Z,-0.73
2019-02-14T03:05:46.795Z,-0.76
2019-02-14T03:06:46.716Z,-0.71
2019-02-14T03:07:46.734Z,-0.76
2019-02-14T03:08:46.728Z,-0.84
2019-02-14T03:09:46.693Z,-0.84
2019-02-14T03:10:46.685Z,-0.81
2019-02-14T03:11:46.667Z,-0.89
2019-02-14T03:12:46.665Z,-0.85
2019-02-14T03:13:46.620Z,-0.97
2019-02-14T03:14:47.685Z,-0.86
2019-02-14T03:15:46.588Z,-0.92
2019-02-14T03:16:46.587Z,-1.03
2019-02-14T03:17:46.584Z,-0.98
2019-02-14T03:18:46.563Z,-0.98
2019-02-14T03:19:47.244Z,-1.10
2019-02-14T03:20:46.599Z,-1.13
2019-02-14T03:21:46.528Z,-1.10
2019-02-14T03:22:46.520Z,-1.10
2019-02-14T03:23:46.502Z,-1.08
2019-02-14T03:24:46.480Z,-1.03
2019-02-14T03:25:46.493Z,-0.98
2019-02-14T03:26:46.545Z,-0.95
2019-02-14T03:27:46.533Z,-0.97
2019-02-14T03:28:46.453Z,-0.90
2019-02-14T03:29:46.431Z,-0.89
2019-02-14T03:30:46.428Z,-0.85
2019-02-14T03:31:46.437Z,-0.82
2019-02-14T03:32:46.482Z,-0.89
2019-02-14T03:33:46.393Z,-0.85
2019-02-14T03:34:46.397Z,-0.85
2019-02-14T03:35:46.399Z,-0.81
2019-02-14T03:36:46.362Z,-0.82
2019-02-14T03:37:46.355Z,-0.73
2019-02-14T03:38:46.421Z,-0.71
2019-02-14T03:39:46.345Z,-0.73
2019-02-14T03:40:46.319Z,-0.75
2019-02-14T03:41:46.374Z,-0.70
2019-02-14T03:42:46.308Z,-0.75
2019-02-14T03:43:46.311Z,-0.75
2019-02-14T03:44:46.335Z,-0.70
2019-02-14T03:45:46.286Z,-0.75
2019-02-14T03:46:46.341Z,-0.76
2019-02-14T03:47:46.349Z,-0.78
2019-02-14T03:48:46.268Z,-0.75
2019-02-14T03:49:47.217Z,-0.75
2019-02-14T03:50:46.317Z,-0.76
2019-02-14T03:51:46.203Z,-0.79
2019-02-14T03:52:46.287Z,-0.75
2019-02-14T03:53:46.203Z,-0.73
2019-02-14T03:54:46.730Z,-0.60
2019-02-14T03:55:46.190Z,-0.58
2019-02-14T03:56:46.216Z,-0.52
2019-02-14T03:57:46.144Z,-0.49
2019-02-14T03:58:46.126Z,-0.52
2019-02-14T03:59:46.200Z,-0.46
2019-02-14T04:00:46.133Z,-0.47
2019-02-14T04:01:46.133Z,-0.45
2019-02-14T04:02:46.208Z,-0.47
2019-02-14T04:03:46.180Z,-0.43
2019-02-14T04:04:46.128Z,-0.35
2019-02-14T04:05:46.074Z,-0.35
2019-02-14T04:06:46.057Z,-0.39
2019-02-14T04:07:46.202Z,-0.40
2019-02-14T04:08:46.090Z,-0.40
2019-02-14T04:09:46.035Z,-0.49
2019-02-14T04:10:46.051Z,-0.52
2019-02-14T04:11:45.998Z,-0.53
2019-02-14T04:12:46.005Z,-0.58
2019-02-14T04:13:45.974Z,-0.61
2019-02-14T04:14:46.043Z,-0.68
2019-02-14T04:15:45.942Z,-0.71
2019-02-14T04:16:45.949Z,-0.66
2019-02-14T04:17:45.937Z,-0.75
2019-02-14T04:18:45.917Z,-0.79
2019-02-14T04:19:45.902Z,-0.84
2019-02-14T04:20:46.080Z,-0.92
2019-02-14T04:21:45.871Z,-0.85
2019-02-14T04:22:45.868Z,-0.86
2019-02-14T04:23:45.880Z,-0.94
2019-02-14T04:24:45.840Z,-1.00
2019-02-14T04:25:46.703Z,-1.13
2019-02-14T04:26:45.884Z,-1.07
2019-02-14T04:27:45.808Z,-1.19
2019-02-14T04:28:45.821Z,-1.15
2019-02-14T04:29:45.792Z,-1.25
2019-02-14T04:30:45.811Z,-1.23
2019-02-14T04:31:45.767Z,-1.31
2019-02-14T04:32:46.728Z,-1.39
2019-02-14T04:33:48.706Z,-1.31
2019-02-14T04:34:45.743Z,-1.37
2019-02-14T04:35:45.737Z,-1.44
2019-02-14T04:36:45.717Z,-1.49
2019-02-14T04:37:45.730Z,-1.49
2019-02-14T04:38:45.789Z,-1.44
2019-02-14T04:39:45.753Z,-1.44
2019-02-14T04:40:45.681Z,-1.47
2019-02-14T04:41:45.672Z,-1.52
2019-02-14T04:42:45.647Z,-1.46
2019-02-14T04:43:45.639Z,-1.52
2019-02-14T04:44:45.700Z,-1.47
2019-02-14T04:45:45.648Z,-1.59
2019-02-14T04:46:45.619Z,-1.58
2019-02-14T04:47:45.643Z,-1.54
2019-02-14T04:48:45.714Z,-1.59
2019-02-14T04:49:45.585Z,-1.64
2019-02-14T04:50:45.632Z,-1.69
2019-02-14T04:51:45.536Z,-1.82
2019-02-14T04:52:45.564Z,-1.79
2019-02-14T04:53:45.542Z,-1.83
2019-02-14T04:54:45.520Z,-1.85
2019-02-14T04:55:45.525Z,-1.82
2019-02-14T04:56:45.658Z,-1.85
2019-02-14T04:57:45.587Z,-1.79
2019-02-14T04:58:45.507Z,-1.83
2019-02-14T04:59:45.535Z,-1.76
2019-02-14T05:00:45.468Z,-1.79
2019-02-14T05:01:45.525Z,-1.98
2019-02-14T05:02:45.539Z,-1.93
2019-02-14T05:03:45.413Z,-1.98
2019-02-14T05:04:45.416Z,-2.03
2019-02-14T05:05:45.502Z,-2.03
2019-02-14T05:06:45.401Z,-1.98
2019-02-14T05:07:45.369Z,-2.11
2019-02-14T05:08:45.769Z,-2.00
2019-02-14T05:09:45.354Z,-1.98
2019-02-14T05:10:45.373Z,-2.04
2019-02-14T05:11:45.346Z,-2.00
2019-02-14T05:12:45.394Z,-2.00
2019-02-14T05:13:45.320Z,-1.97
2019-02-14T05:14:45.402Z,-2.08
2019-02-14T05:15:45.295Z,-2.00
2019-02-14T05:16:46.191Z,-2.01
2019-02-14T05:17:45.278Z,-2.12
2019-02-14T05:18:45.258Z,-2.04
2019-02-14T05:19:45.314Z,-2.16
2019-02-14T05:20:45.454Z,-2.12
2019-02-14T05:21:45.247Z,-2.11
2019-02-14T05:22:45.247Z,-2.19
2019-02-14T05:23:45.261Z,-2.04
2019-02-14T05:24:45.212Z,-2.04
2019-02-14T05:25:45.310Z,-2.03
2019-02-14T05:26:45.273Z,-2.09
2019-02-14T05:27:45.186Z,-2.15
2019-02-14T05:28:45.131Z,-2.12
2019-02-14T05:29:45.116Z,-2.12
2019-02-14T05:30:45.108Z,-1.97
2019-02-14T05:31:45.096Z,-1.97
2019-02-14T05:32:45.142Z,-2.01
2019-02-14T05:33:45.096Z,-1.97
2019-02-14T05:34:45.066Z,-2.08
2019-02-14T05:35:45.051Z,-2.04
2019-02-14T05:36:52.502Z,-1.97
2019-02-14T05:37:46.068Z,-1.91
2019-02-14T05:38:45.018Z,-1.94
2019-02-14T05:39:45.107Z,-1.85
2019-02-14T05:40:45.012Z,-1.85
2019-02-14T05:41:45.011Z,-1.75
2019-02-14T05:42:44.978Z,-1.73
2019-02-14T05:43:45.020Z,-1.62
2019-02-14T05:44:44.957Z,-1.65
2019-02-14T05:45:44.944Z,-1.52
2019-02-14T05:46:44.945Z,-1.55
2019-02-14T05:47:44.938Z,-1.46
2019-02-14T05:48:44.927Z,-1.54
2019-02-14T05:49:44.935Z,-1.47
2019-02-14T05:50:44.917Z,-1.49
2019-02-14T05:51:44.895Z,-1.52
2019-02-14T05:52:44.869Z,-1.40
2019-02-14T05:53:44.865Z,-1.40
2019-02-14T05:54:44.848Z,-1.43
2019-02-14T05:55:45.002Z,-1.26
2019-02-14T05:56:44.827Z,-1.31
2019-02-14T05:57:44.816Z,-1.26
2019-02-14T05:58:44.807Z,-1.36
2019-02-14T05:59:44.797Z,-1.25
2019-02-14T06:00:44.792Z,-1.26
2019-02-14T06:01:44.828Z,-1.22
2019-02-14T06:02:44.772Z,-1.16
2019-02-14T06:03:44.761Z,-1.21
2019-02-14T06:04:44.753Z,-1.21
2019-02-14T06:05:44.761Z,-1.18
2019-02-14T06:06:44.722Z,-1.18
2019-02-14T06:07:44.862Z,-1.16
2019-02-14T06:08:44.739Z,-1.15
2019-02-14T06:09:44.690Z,-1.11
2019-02-14T06:10:44.700Z,-1.21
2019-02-14T06:11:44.674Z,-1.23
2019-02-14T06:12:44.656Z,-1.23
2019-02-14T06:13:44.708Z,-1.22
2019-02-14T06:14:44.647Z,-1.28
2019-02-14T06:15:44.652Z,-1.23
2019-02-14T06:16:44.616Z,-1.33
2019-02-14T06:17:44.601Z,-1.25
2019-02-14T06:18:44.596Z,-1.33
2019-02-14T06:19:44.611Z,-1.41
2019-02-14T06:20:44.575Z,-1.47
2019-02-14T06:21:44.577Z,-1.54
2019-02-14T06:22:44.556Z,-1.49
2019-02-14T06:23:44.538Z,-1.57
2019-02-14T06:24:44.527Z,-1.55
2019-02-14T06:25:44.567Z,-1.64
2019-02-14T06:26:44.516Z,-1.58
2019-02-14T06:27:44.512Z,-1.67
2019-02-14T06:28:44.502Z,-1.62
2019-02-14T06:29:44.484Z,-1.62
2019-02-14T06:30:44.466Z,-1.72
2019-02-14T06:31:44.522Z,-1.67
2019-02-14T06:32:44.444Z,-1.64
2019-02-14T06:33:44.456Z,-1.76
2019-02-14T06:34:44.435Z,-1.78
2019-02-14T06:35:44.409Z,-1.78
2019-02-14T06:36:44.397Z,-1.79
2019-02-14T06:37:44.661Z,-1.83
2019-02-14T06:38:44.376Z,-1.83
2019-02-14T06:39:44.368Z,-1.91
2019-02-14T06:40:44.357Z,-1.91
2019-02-14T06:41:44.344Z,-1.90
2019-02-14T06:42:44.334Z,-1.93
2019-02-14T06:43:44.599Z,-2.09
2019-02-14T06:44:44.314Z,-2.03
2019-02-14T06:45:44.315Z,-1.94
2019-02-14T06:46:44.292Z,-2.11
2019-02-14T06:47:44.287Z,-2.12
2019-02-14T06:48:44.271Z,-2.12
2019-02-14T06:49:44.293Z,-2.14
2019-02-14T06:50:44.249Z,-2.14
2019-02-14T06:51:44.248Z,-2.19
2019-02-14T06:52:44.227Z,-2.21
2019-02-14T06:53:44.310Z,-2.14
2019-02-14T06:54:44.210Z,-2.15
2019-02-14T06:55:44.232Z,-2.12
2019-02-14T06:56:44.183Z,-2.01
2019-02-14T06:57:44.195Z,-1.98
2019-02-14T06:58:44.170Z,-1.94
2019-02-14T06:59:44.155Z,-1.80
2019-02-14T07:00:44.148Z,-1.80
2019-02-14T07:01:44.241Z,-1.79
2019-02-14T07:02:44.373Z,-1.72
2019-02-14T07:03:44.126Z,-1.83
2019-02-14T07:04:44.099Z,-1.78
2019-02-14T07:05:44.088Z,-1.88
2019-02-14T07:06:44.160Z,-1.79
2019-02-14T07:07:44.106Z,-1.94
2019-02-14T07:08:44.063Z,-1.90
2019-02-14T07:09:44.097Z,-1.93
2019-02-14T07:10:44.037Z,-1.96
2019-02-14T07:11:44.030Z,-2.11
2019-02-14T07:12:44.014Z,-2.06
2019-02-14T07:13:44.060Z,-1.90
2019-02-14T07:14:44.000Z,-1.94
2019-02-14T07:15:43.981Z,-1.83
2019-02-14T07:16:43.971Z,-1.88
2019-02-14T07:17:43.960Z,-1.85
2019-02-14T07:18:43.954Z,-1.79
2019-02-14T07:19:43.999Z,-1.79
2019-02-14T07:20:43.927Z,-1.79
2019-02-14T07:21:43.920Z,-1.78
2019-02-14T07:22:43.906Z,-1.75
2019-02-14T07:23:44.640Z,-1.78
2019-02-14T07:25:11.391Z,-1.80
2019-02-14T07:25:45.745Z,-1.65
2019-02-14T07:27:23.148Z,-1.86
2019-02-14T07:27:43.858Z,-1.69
2019-02-14T07:28:43.849Z,-1.72
2019-02-14T07:29:43.839Z,-1.67
2019-02-14T07:30:43.860Z,-1.69
2019-02-14T07:31:43.812Z,-1.58
2019-02-14T07:32:43.800Z,-1.70
2019-02-14T07:33:43.791Z,-1.55
2019-02-14T07:34:43.780Z,-1.51
2019-02-14T07:35:43.771Z,-1.47
2019-02-14T07:36:43.810Z,-1.51
2019-02-14T07:37:43.750Z,-1.58
2019-02-14T07:38:43.737Z,-1.44
2019-02-14T07:39:43.737Z,-1.40
2019-02-14T07:40:43.716Z,-1.33
2019-02-14T07:41:43.703Z,-1.37
2019-02-14T07:42:43.754Z,-1.26
2019-02-14T07:43:43.693Z,-1.26
2019-02-14T07:44:43.687Z,-1.28
2019-02-14T07:45:43.665Z,-1.26
2019-02-14T07:46:43.657Z,-1.19
2019-02-14T07:47:43.640Z,-1.15
2019-02-14T07:48:43.700Z,-1.10
2019-02-14T07:49:43.620Z,-1.07
2019-02-14T07:50:43.647Z,-1.00
2019-02-14T07:51:43.603Z,-0.90
2019-02-14T07:52:43.594Z,-0.92
2019-02-14T07:53:43.573Z,-0.84
2019-02-14T07:54:43.592Z,-0.89
2019-02-14T07:55:43.551Z,-0.81
2019-02-14T07:56:43.549Z,-0.79
2019-02-14T07:57:43.551Z,-0.75
2019-02-14T07:58:43.522Z,-0.66
2019-02-14T07:59:43.511Z,-0.68
2019-02-14T08:00:43.548Z,-0.61
2019-02-14T08:01:43.513Z,-0.61
2019-02-14T08:02:43.476Z,-0.60
2019-02-14T08:03:43.469Z,-0.53
2019-02-14T08:04:43.457Z,-0.40
2019-02-14T08:05:43.450Z,-0.24
2019-02-14T08:06:43.483Z,-0.16
2019-02-14T08:07:43.476Z,-0.10
2019-02-14T08:08:43.418Z,-0.03
2019-02-14T08:09:43.455Z,0.08
2019-02-14T08:10:43.400Z,0.02
2019-02-14T08:11:43.397Z,0.15
2019-02-14T08:12:43.409Z,0.22
2019-02-14T08:13:43.379Z,0.29
2019-02-14T08:14:43.353Z,0.33
2019-02-14T08:15:43.343Z,0.51
2019-02-14T08:16:43.333Z,0.53
2019-02-14T08:17:43.323Z,0.69
2019-02-14T08:18:43.505Z,0.74
2019-02-14T08:19:43.299Z,0.81
2019-02-14T08:20:43.310Z,0.98
2019-02-14T08:21:43.326Z,1.02
2019-02-14T08:22:43.267Z,1.06
2019-02-14T08:23:43.285Z,1.06
2019-02-14T08:24:43.321Z,1.17
2019-02-14T08:25:43.238Z,1.18
2019-02-14T08:26:43.259Z,1.30
2019-02-14T08:27:43.212Z,1.34
2019-02-14T08:28:43.210Z,1.28
2019-02-14T08:29:43.196Z,1.34
2019-02-14T08:30:43.212Z,1.45
2019-02-14T08:31:43.183Z,1.42
2019-02-14T08:32:43.155Z,1.48
2019-02-14T08:33:43.147Z,1.53
2019-02-14T08:34:43.138Z,1.64
2019-02-14T08:35:43.157Z,1.64
2019-02-14T08:36:43.157Z,1.69
2019-02-14T08:37:45.898Z,1.67
2019-02-14T08:38:43.117Z,1.73
2019-02-14T08:39:43.111Z,1.74
2019-02-14T08:40:43.084Z,1.78
2019-02-14T08:41:43.068Z,1.80
2019-02-14T08:42:43.124Z,1.80
2019-02-14T08:43:43.070Z,1.81
2019-02-14T08:44:43.027Z,1.84
2019-02-14T08:45:43.036Z,1.91
2019-02-14T08:46:43.069Z,1.92
2019-02-14T08:47:43.007Z,1.97
2019-02-14T08:48:43.047Z,1.97
2019-02-14T08:49:42.978Z,2.14
2019-02-14T08:50:42.980Z,2.12
2019-02-14T08:51:42.979Z,2.21
2019-02-14T08:52:42.996Z,2.28
2019-02-14T08:53:42.935Z,2.40
2019-02-14T08:54:42.957Z,2.42
2019-02-14T08:55:42.917Z,2.55
2019-02-14T08:56:42.903Z,2.72
2019-02-14T08:57:42.884Z,2.65
2019-02-14T08:58:42.888Z,2.72
2019-02-14T08:59:42.867Z,2.73
2019-02-14T09:00:42.927Z,2.82
2019-02-14T09:01:42.851Z,2.81
2019-02-14T09:02:42.842Z,2.93
2019-02-14T09:03:42.819Z,2.91
2019-02-14T09:04:42.813Z,2.91
2019-02-14T09:05:42.809Z,3.11
2019-02-14T09:06:42.826Z,3.02
2019-02-14T09:07:42.777Z,3.08
2019-02-14T09:08:42.770Z,3.23
2019-02-14T09:09:42.768Z,3.30
2019-02-14T09:10:42.748Z,3.42
2019-02-14T09:11:42.737Z,3.54
2019-02-14T09:12:42.777Z,3.63
2019-02-14T09:13:42.707Z,3.51
2019-02-14T09:14:42.704Z,3.66
2019-02-14T09:15:42.766Z,3.73
2019-02-14T09:16:42.699Z,3.74
2019-02-14T09:17:42.678Z,3.78
2019-02-14T09:18:42.691Z,3.84
2019-02-14T09:19:42.654Z,3.91
2019-02-14T09:20:42.648Z,4.03
2019-02-14T09:21:42.627Z,4.02
2019-02-14T09:22:42.646Z,4.16
2019-02-14T09:23:42.618Z,4.16
2019-02-14T09:24:42.624Z,4.21
2019-02-14T09:25:42.586Z,4.28
2019-02-14T09:26:42.598Z,4.21
2019-02-14T09:27:42.569Z,4.23
2019-02-14T09:28:42.555Z,4.24
2019-02-14T09:29:42.547Z,4.38
2019-02-14T09:30:42.576Z,4.34
2019-02-14T09:31:42.547Z,4.38
2019-02-14T09:32:42.514Z,4.34
2019-02-14T09:33:42.499Z,4.42
2019-02-14T09:34:42.489Z,4.54
2019-02-14T09:35:42.515Z,4.54
2019-02-14T09:36:42.526Z,4.59
2019-02-14T09:37:42.479Z,4.60
2019-02-14T09:38:42.447Z,4.75
2019-02-14T09:39:42.442Z,4.71
2019-02-14T09:40:42.424Z,4.74
2019-02-14T09:41:42.401Z,4.82
2019-02-14T09:42:42.459Z,4.93
2019-02-14T09:43:42.393Z,5.03
2019-02-14T09:44:42.398Z,4.94
2019-02-14T09:45:42.360Z,5.00
2019-02-14T09:46:42.347Z,4.98
2019-02-14T09:47:42.410Z,5.15
2019-02-14T09:48:42.384Z,5.21
2019-02-14T09:49:42.318Z,5.29
2019-02-14T09:50:42.305Z,5.27
2019-02-14T09:51:42.301Z,5.37
2019-02-14T09:52:42.286Z,5.39
2019-02-14T09:53:42.279Z,5.57
2019-02-14T09:54:42.312Z,5.61
2019-02-14T09:55:42.249Z,5.67
2019-02-14T09:56:42.237Z,5.79
2019-02-14T09:57:42.226Z,5.80
2019-02-14T09:58:42.243Z,5.87
2019-02-14T09:59:42.299Z,5.95
2019-02-14T10:00:42.253Z,5.90
2019-02-14T10:01:42.185Z,5.98
2019-02-14T10:02:42.184Z,6.06
2019-02-14T10:03:42.164Z,6.03
2019-02-14T10:04:42.183Z,6.11
2019-02-14T10:05:42.150Z,6.03
2019-02-14T10:06:42.182Z,6.19
2019-02-14T10:07:42.128Z,6.24
2019-02-14T10:08:42.141Z,6.24
2019-02-14T10:09:42.107Z,6.32
2019-02-14T10:10:42.094Z,6.34
2019-02-14T10:11:42.101Z,6.35
2019-02-14T10:12:42.099Z,6.28
2019-02-14T10:13:42.055Z,6.32
2019-02-14T10:14:42.093Z,6.31
2019-02-14T10:15:42.036Z,6.34
2019-02-14T10:16:42.020Z,6.52
2019-02-14T10:17:42.014Z,6.50
2019-02-14T10:18:42.029Z,6.63
2019-02-14T10:19:42.000Z,6.64
2019-02-14T10:20:41.986Z,6.64
2019-02-14T10:21:41.977Z,6.68
2019-02-14T10:22:41.971Z,6.81
2019-02-14T10:23:41.941Z,6.83
2019-02-14T10:24:41.967Z,7.00
2019-02-14T10:25:41.912Z,7.01
2019-02-14T10:26:41.927Z,7.07
2019-02-14T10:27:41.893Z,7.31
2019-02-14T10:28:41.889Z,7.21
2019-02-14T10:29:41.879Z,7.29
2019-02-14T10:30:41.908Z,7.36
2019-02-14T10:31:41.900Z,7.44
2019-02-14T10:32:41.842Z,7.52
2019-02-14T10:33:41.837Z,7.58
2019-02-14T10:34:41.814Z,7.62
2019-02-14T10:35:41.816Z,7.69
2019-02-14T10:36:41.849Z,7.78
2019-02-14T10:37:41.787Z,7.71
2019-02-14T10:38:41.780Z,7.77
2019-02-14T10:39:41.765Z,7.86
2019-02-14T10:40:41.795Z,8.02
2019-02-14T10:41:41.738Z,7.99
2019-02-14T10:42:41.781Z,8.09
2019-02-14T10:43:48.685Z,7.91
2019-02-14T10:44:42.708Z,7.98
2019-02-14T10:45:41.712Z,7.99
2019-02-14T10:46:41.697Z,8.01
2019-02-14T10:47:41.677Z,8.04
2019-02-14T10:48:41.710Z,8.14
2019-02-14T10:49:41.702Z,8.06
2019-02-14T10:50:41.649Z,8.14
2019-02-14T10:51:41.629Z,8.26
2019-02-14T10:52:41.618Z,8.32
2019-02-14T10:53:41.606Z,8.39
2019-02-14T10:54:41.694Z,8.47
2019-02-14T10:55:41.590Z,8.65
2019-02-14T10:56:41.575Z,8.65
2019-02-14T10:57:41.583Z,8.75
2019-02-14T10:58:41.549Z,8.88
2019-02-14T10:59:41.552Z,8.93
2019-02-14T11:00:41.583Z,8.98
2019-02-14T11:01:41.537Z,9.14
2019-02-14T11:02:41.526Z,9.04
2019-02-14T11:03:41.500Z,9.27
2019-02-14T11:04:41.576Z,9.32
2019-02-14T11:05:41.479Z,9.37
2019-02-14T11:06:41.490Z,9.40
2019-02-14T11:07:41.455Z,9.45
2019-02-14T11:08:41.465Z,9.32
2019-02-14T11:09:41.453Z,9.26
2019-02-14T11:10:41.418Z,9.29
2019-02-14T11:11:41.415Z,9.34
2019-02-14T11:12:41.493Z,9.34
2019-02-14T11:13:41.392Z,9.33
2019-02-14T11:14:41.376Z,9.48
2019-02-14T11:15:41.362Z,9.41
2019-02-14T11:16:41.399Z,9.29
2019-02-14T11:17:41.371Z,9.44
2019-02-14T11:18:44.252Z,9.34
2019-02-14T11:19:41.359Z,9.40
2019-02-14T11:20:41.318Z,9.57
2019-02-14T11:21:41.302Z,9.55
2019-02-14T11:22:41.284Z,9.66
2019-02-14T11:23:41.287Z,9.67
2019-02-14T11:24:41.284Z,9.66
2019-02-14T11:25:41.249Z,9.73
2019-02-14T11:26:41.247Z,9.75
2019-02-14T11:27:41.239Z,9.75
2019-02-14T11:28:41.229Z,9.85
2019-02-14T11:29:41.209Z,9.90
2019-02-14T11:30:41.249Z,9.94
2019-02-14T11:31:41.183Z,9.96
2019-02-14T11:32:41.169Z,9.99
2019-02-14T11:33:41.170Z,10.02
2019-02-14T11:34:41.158Z,10.18
2019-02-14T11:35:41.148Z,10.34
2019-02-14T11:36:41.214Z,10.36
2019-02-14T11:37:41.162Z,10.36
2019-02-14T11:38:41.111Z,10.30
2019-02-14T11:39:41.092Z,10.21
2019-02-14T11:40:41.123Z,10.27
2019-02-14T11:41:41.112Z,10.30
2019-02-14T11:42:41.129Z,10.35
2019-02-14T11:43:41.062Z,10.49
2019-02-14T11:44:41.092Z,10.45
2019-02-14T11:45:41.035Z,10.57
2019-02-14T11:46:41.028Z,10.54
2019-02-14T11:47:41.010Z,10.55
2019-02-14T11:48:41.052Z,10.60
2019-02-14T11:49:41.000Z,10.49
2019-02-14T11:50:40.979Z,10.39
2019-02-14T11:51:40.972Z,10.36
2019-02-14T11:52:40.975Z,10.38
2019-02-14T11:53:40.950Z,10.30
2019-02-14T11:54:41.008Z,10.28
2019-02-14T11:55:40.933Z,10.18
2019-02-14T11:56:40.914Z,10.35
2019-02-14T11:57:40.897Z,10.27
2019-02-14T11:58:40.913Z,10.28
2019-02-14T11:59:40.885Z,10.39
2019-02-14T12:00:40.906Z,10.39
2019-02-14T12:01:40.895Z,10.49
2019-02-14T12:02:40.876Z,10.67
2019-02-14T12:03:40.842Z,10.67
2019-02-14T12:04:40.826Z,10.58
2019-02-14T12:05:40.815Z,10.62
2019-02-14T12:06:40.924Z,10.65
2019-02-14T12:07:40.814Z,10.75
2019-02-14T12:08:52.972Z,10.78
2019-02-14T12:09:41.777Z,10.70
2019-02-14T12:10:40.761Z,10.75
2019-02-14T12:11:40.747Z,10.76
2019-02-14T12:12:40.774Z,10.78
2019-02-14T12:13:40.721Z,10.86
2019-02-14T12:14:40.749Z,10.97
2019-02-14T12:15:40.707Z,11.09
2019-02-14T12:16:40.702Z,11.00
2019-02-14T12:17:40.685Z,10.97
2019-02-14T12:18:40.764Z,10.97
2019-02-14T12:19:40.677Z,11.11
2019-02-14T12:20:40.645Z,11.18
2019-02-14T12:21:40.630Z,11.19
2019-02-14T12:22:46.580Z,11.36
2019-02-14T12:23:41.654Z,11.33
2019-02-14T12:24:40.608Z,11.37
2019-02-14T12:25:40.591Z,11.40
2019-02-14T12:26:40.575Z,11.38
2019-02-14T12:27:40.600Z,11.55
2019-02-14T12:28:40.553Z,11.62
2019-02-14T12:29:40.598Z,11.67
2019-02-14T12:30:40.546Z,11.85
2019-02-14T12:31:40.522Z,11.96
2019-02-14T12:32:40.502Z,11.96
2019-02-14T12:33:40.509Z,12.21
2019-02-14T12:34:40.500Z,12.07
2019-02-14T12:35:40.507Z,12.15
2019-02-14T12:36:40.465Z,12.21
2019-02-14T12:37:40.452Z,12.38
2019-02-14T12:38:40.450Z,12.54
2019-02-14T12:39:40.437Z,12.69
2019-02-14T12:40:40.610Z,12.84
2019-02-14T12:41:40.451Z,13.11
2019-02-14T12:42:40.392Z,13.39
2019-02-14T12:43:40.378Z,13.63
2019-02-14T12:44:40.368Z,13.65
2019-02-14T12:45:40.419Z,14.00
2019-02-14T12:46:40.346Z,14.44
2019-02-14T12:47:40.589Z,14.51
2019-02-14T12:48:40.328Z,14.92
2019-02-14T12:49:40.318Z,15.26
2019-02-14T12:50:40.298Z,15.23
2019-02-14T12:51:40.295Z,15.40
2019-02-14T12:52:40.282Z,15.36
2019-02-14T12:53:40.335Z,15.30
2019-02-14T12:54:40.293Z,15.29
2019-02-14T12:55:40.264Z,15.38
2019-02-14T12:56:40.231Z,15.47
2019-02-14T12:57:40.223Z,15.60
2019-02-14T12:58:40.220Z,15.56
2019-02-14T12:59:40.411Z,15.51
2019-02-14T13:00:40.189Z,15.70